Forside
METAR-TAF:

METAR-TAF

Lufthavne :

Porter County Municipal Airport

Valparaiso, Indiana, USA

Breddekreds: 41-27-11N, længdekreds: 086-59-53W, højde: 234 m

Aktuelle vejr

Denne rapport blev lavet for 29 minutter siden, kl. 20:56 UTC
Vind 10 kt fra vestsydvest
Temperatur -1°C
Fugtighed 93%
Tryk 1012 hPa
Sigt: 9.7 km
Overskyet i en højde af 700 ft
dis

METAR: KVPZ 262056Z AUTO 24010KT 6SM BR OVC007 M01/M02 A2989 RMK AO2 SNB01E34 SLP131 P0000 60000 T10061022 55006

Tid: 15:25 (21:25 UTC)


TAF: fraværende

Vejrobservationer og prognoser fra mere end 4000 lufthavne (METAR og TAF).

De gule og røde prikker repræsenterer de meteorologiske stationer.

Flyt musen over at se navnet på stationen.

Så klik over at se vejr observationer og prognoser.

At skifte det kort: Klik på de grønne knapper med et sort kors for at zoome ind; på den grønne knap med en bindestreg for at zoome ud; eller på de grønne pile for tilstødende kort.


METAR-TAF: